Time;durP1;ratioP1;P1;durP2;ratioP2;P2;SDS_P1;SDS_P2;PMS_P1;PMS_P2;Temp;Humidity;BMP_temperature;BMP_pressure;BME280_temperature;BME280_humidity;BME280_pressure;Samples;Min_cycle;Max_cycle;Signal;HPM_P1;HPM_P2
2023/05/27 00:00:50;;;;;;;11.43;3.28;;;;;;;;;;4815420;29;20528;-75
2023/05/27 00:03:22;;;;;;;5.88;2.95;;;;;;;;;;4826634;29;20058;-74
2023/05/27 00:05:53;;;;;;;7.72;3.00;;;;;;;;;;4813957;29;20058;-75
2023/05/27 00:08:24;;;;;;;7.75;3.28;;;;;;;;;;4814345;29;20055;-75
2023/05/27 00:10:54;;;;;;;5.60;3.30;;;;;;;;;;4814945;29;20706;-75
2023/05/27 00:13:25;;;;;;;16.30;7.30;;;;;;;;;;4815154;29;20058;-74
2023/05/27 00:15:56;;;;;;;12.68;5.75;;;;;;;;;;4815158;29;20522;-74
2023/05/27 00:18:28;;;;;;;10.65;4.15;;;;;;;;;;4817637;29;20046;-74
2023/05/27 00:20:59;;;;;;;6.05;4.30;;;;;;;;;;4819801;29;20053;-75
2023/05/27 00:23:29;;;;;;;9.18;3.92;;;;;;;;;;4819422;29;20050;-75
2023/05/27 00:26:00;;;;;;;13.88;6.00;;;;;;;;;;4820548;29;20054;-75
2023/05/27 00:28:31;;;;;;;10.82;5.68;;;;;;;;;;4820587;29;20061;-75
2023/05/27 00:31:02;;;;;;;11.80;5.45;;;;;;;;;;4818873;29;20387;-75
2023/05/27 00:33:31;;;;;;;13.43;8.15;;;;;;;;;;4832912;29;20051;-76
2023/05/27 00:36:03;;;;;;;12.27;6.18;;;;;;;;;;4818535;29;20054;-75
2023/05/27 00:38:35;;;;;;;14.25;3.88;;;;;;;;;;4832407;29;20051;-74
2023/05/27 00:41:07;;;;;;;6.25;3.30;;;;;;;;;;4818405;29;20062;-75
2023/05/27 00:43:37;;;;;;;8.43;2.83;;;;;;;;;;4819850;29;20055;-75
2023/05/27 00:46:21;;;;;;;7.30;2.55;;;;;;;;;;4815491;29;20054;-74
2023/05/27 00:48:51;;;;;;;5.78;3.20;;;;;;;;;;4832656;29;20560;-75
2023/05/27 00:51:22;;;;;;;8.32;2.72;;;;;;;;;;4818592;29;20050;-75
2023/05/27 00:53:52;;;;;;;7.93;2.80;;;;;;;;;;4819023;29;20054;-76
2023/05/27 00:56:25;;;;;;;6.13;2.85;;;;;;;;;;4819375;29;20065;-75
2023/05/27 00:58:56;;;;;;;6.53;2.83;;;;;;;;;;4832333;29;20065;-75
2023/05/27 01:01:43;;;;;;;7.35;2.55;;;;;;;;;;4832164;29;20530;-74
2023/05/27 01:04:13;;;;;;;4.93;2.50;;;;;;;;;;4832993;29;20054;-75
2023/05/27 01:07:09;;;;;;;7.03;2.58;;;;;;;;;;4819420;29;20503;-75
2023/05/27 01:10:04;;;;;;;6.88;3.03;;;;;;;;;;4832743;29;20063;-75
2023/05/27 01:12:49;;;;;;;5.93;3.00;;;;;;;;;;4832545;29;20055;-76
2023/05/27 01:15:23;;;;;;;6.60;3.15;;;;;;;;;;4832668;29;20073;-74
2023/05/27 01:17:56;;;;;;;10.27;3.95;;;;;;;;;;4819179;29;20060;-75
2023/05/27 01:20:29;;;;;;;8.73;2.90;;;;;;;;;;4832635;29;20058;-74
2023/05/27 01:23:00;;;;;;;5.78;3.30;;;;;;;;;;4819020;29;20050;-74
2023/05/27 01:25:31;;;;;;;5.60;2.88;;;;;;;;;;4832390;29;20050;-75
2023/05/27 01:28:01;;;;;;;9.60;3.30;;;;;;;;;;4818801;29;20058;-75
2023/05/27 01:30:33;;;;;;;4.43;3.20;;;;;;;;;;4832471;29;20065;-74
2023/05/27 01:33:12;;;;;;;4.97;2.60;;;;;;;;;;4832268;29;20054;-74
2023/05/27 01:35:46;;;;;;;7.95;2.97;;;;;;;;;;4832413;29;20413;-74
2023/05/27 01:38:20;;;;;;;8.13;3.30;;;;;;;;;;4819219;29;20050;-74
2023/05/27 01:40:53;;;;;;;6.95;2.40;;;;;;;;;;4818569;29;20062;-74
2023/05/27 01:43:25;;;;;;;6.47;3.25;;;;;;;;;;4831328;29;20054;-74
2023/05/27 01:45:55;;;;;;;7.82;2.70;;;;;;;;;;4832181;29;20474;-74
2023/05/27 01:48:25;;;;;;;4.95;2.05;;;;;;;;;;4818370;29;20065;-74
2023/05/27 01:50:55;;;;;;;4.55;2.30;;;;;;;;;;4832376;29;20415;-75
2023/05/27 01:53:28;;;;;;;4.70;2.38;;;;;;;;;;4831905;29;20510;-74
2023/05/27 01:56:02;;;;;;;11.05;3.15;;;;;;;;;;4831683;29;20062;-74
2023/05/27 01:58:34;;;;;;;6.57;3.00;;;;;;;;;;4831710;29;20061;-73
2023/05/27 02:01:04;;;;;;;7.43;3.10;;;;;;;;;;4831836;29;20058;-74
2023/05/27 02:03:34;;;;;;;17.90;2.83;;;;;;;;;;4831933;29;20058;-73
2023/05/27 02:06:05;;;;;;;6.13;3.28;;;;;;;;;;4831674;29;20050;-74
2023/05/27 02:08:35;;;;;;;7.30;3.10;;;;;;;;;;4831987;29;20053;-75
2023/05/27 02:11:08;;;;;;;9.45;3.03;;;;;;;;;;4831961;29;20058;-74
2023/05/27 02:13:38;;;;;;;8.57;3.55;;;;;;;;;;4832130;29;20522;-75
2023/05/27 02:16:08;;;;;;;6.43;3.38;;;;;;;;;;4831361;29;20054;-74
2023/05/27 02:18:40;;;;;;;6.80;3.75;;;;;;;;;;4831828;29;20422;-74
2023/05/27 02:21:12;;;;;;;6.45;3.88;;;;;;;;;;4831137;29;20074;-75
2023/05/27 02:23:45;;;;;;;9.75;4.00;;;;;;;;;;4831598;29;20055;-75
2023/05/27 02:26:18;;;;;;;10.38;3.85;;;;;;;;;;4817926;29;20055;-78
2023/05/27 02:28:48;;;;;;;9.60;3.85;;;;;;;;;;4831904;29;20527;-75
2023/05/27 02:31:20;;;;;;;7.97;3.78;;;;;;;;;;4831069;29;20066;-75
2023/05/27 02:33:52;;;;;;;9.13;3.83;;;;;;;;;;4831378;29;20069;-74
2023/05/27 02:36:34;;;;;;;8.20;3.38;;;;;;;;;;4831086;29;20644;-74
2023/05/27 02:39:05;;;;;;;12.15;3.78;;;;;;;;;;4831236;29;20058;-77
2023/05/27 02:41:36;;;;;;;8.73;3.50;;;;;;;;;;4830992;29;20061;-74
2023/05/27 02:44:08;;;;;;;5.95;3.70;;;;;;;;;;4816418;29;20058;-76
2023/05/27 02:46:38;;;;;;;8.60;3.72;;;;;;;;;;4831107;29;20058;-75
2023/05/27 02:49:08;;;;;;;9.93;4.07;;;;;;;;;;4831287;29;20519;-74
2023/05/27 02:51:38;;;;;;;9.57;4.45;;;;;;;;;;4817020;29;20058;-74
2023/05/27 02:54:08;;;;;;;13.13;5.13;;;;;;;;;;4831025;29;20757;-74
2023/05/27 02:56:41;;;;;;;8.52;4.55;;;;;;;;;;4817261;29;20511;-74
2023/05/27 02:59:12;;;;;;;11.35;5.18;;;;;;;;;;4817402;29;20541;-74
2023/05/27 03:01:42;;;;;;;14.13;4.70;;;;;;;;;;4830342;29;20059;-74
2023/05/27 03:04:13;;;;;;;14.13;4.70;;;;;;;;;;4831047;29;20054;-74
2023/05/27 03:06:46;;;;;;;13.48;6.20;;;;;;;;;;4817541;29;20054;-75
2023/05/27 03:09:17;;;;;;;12.65;4.70;;;;;;;;;;4817133;29;20410;-75
2023/05/27 03:11:48;;;;;;;15.00;5.60;;;;;;;;;;4830589;29;20054;-75
2023/05/27 03:14:18;;;;;;;13.27;5.65;;;;;;;;;;4830318;29;20061;-74
2023/05/27 03:16:48;;;;;;;9.05;5.25;;;;;;;;;;4817252;29;20046;-75
2023/05/27 03:19:20;;;;;;;10.27;5.18;;;;;;;;;;4817040;29;20054;-75
2023/05/27 03:21:51;;;;;;;10.35;4.78;;;;;;;;;;4817458;29;20050;-74
2023/05/27 03:24:21;;;;;;;11.27;5.25;;;;;;;;;;4830690;29;20062;-75
2023/05/27 03:26:52;;;;;;;9.15;4.97;;;;;;;;;;4830774;29;20418;-74
2023/05/27 03:29:23;;;;;;;11.10;4.72;;;;;;;;;;4816455;29;20070;-75
2023/05/27 03:31:55;;;;;;;10.40;4.10;;;;;;;;;;4830033;29;20059;-75
2023/05/27 03:34:29;;;;;;;14.10;4.70;;;;;;;;;;4830356;29;20058;-75
2023/05/27 03:37:00;;;;;;;10.20;4.70;;;;;;;;;;4830426;29;20054;-75
2023/05/27 03:39:48;;;;;;;15.60;5.63;;;;;;;;;;4830594;29;20065;-75
2023/05/27 03:42:22;;;;;;;8.75;5.15;;;;;;;;;;4830141;29;20101;-75
2023/05/27 03:44:52;;;;;;;10.20;5.80;;;;;;;;;;4830689;29;20058;-75
2023/05/27 03:47:23;;;;;;;10.80;4.95;;;;;;;;;;4830342;29;20442;-74
2023/05/27 03:49:54;;;;;;;12.75;6.00;;;;;;;;;;4816723;29;20506;-74
2023/05/27 03:52:25;;;;;;;15.63;5.70;;;;;;;;;;4816774;29;20536;-76
2023/05/27 03:54:55;;;;;;;17.88;6.38;;;;;;;;;;4817038;29;20129;-75
2023/05/27 03:57:26;;;;;;;10.45;6.15;;;;;;;;;;4830263;29;20062;-75
2023/05/27 03:59:57;;;;;;;16.40;6.22;;;;;;;;;;4816775;29;20054;-74
2023/05/27 04:02:28;;;;;;;16.15;5.35;;;;;;;;;;4830128;29;20065;-77
2023/05/27 04:05:00;;;;;;;9.63;5.03;;;;;;;;;;4816450;29;20065;-77
2023/05/27 04:07:31;;;;;;;10.88;4.18;;;;;;;;;;4816591;29;20062;-75
2023/05/27 04:10:05;;;;;;;11.90;5.10;;;;;;;;;;4816424;29;20058;-77
2023/05/27 04:12:36;;;;;;;10.10;3.78;;;;;;;;;;4816527;29;20054;-76
2023/05/27 04:15:07;;;;;;;10.85;3.72;;;;;;;;;;4816268;29;20054;-75
2023/05/27 04:17:52;;;;;;;5.35;2.97;;;;;;;;;;4816520;29;20054;-74
2023/05/27 04:20:23;;;;;;;6.22;2.70;;;;;;;;;;4829518;29;20065;-75
2023/05/27 04:22:59;;;;;;;4.90;2.92;;;;;;;;;;4829779;29;20062;-75
2023/05/27 04:25:29;;;;;;;8.10;2.17;;;;;;;;;;4829716;29;20054;-75
2023/05/27 04:28:05;;;;;;;5.30;2.42;;;;;;;;;;4829946;29;20065;-76
2023/05/27 04:30:40;;;;;;;4.80;2.60;;;;;;;;;;4829829;29;20062;-75
2023/05/27 04:33:17;;;;;;;5.97;2.00;;;;;;;;;;4830367;29;20430;-76
2023/05/27 04:35:53;;;;;;;5.25;2.38;;;;;;;;;;4829882;29;20057;-76
2023/05/27 04:38:25;;;;;;;4.43;1.92;;;;;;;;;;4829482;29;20073;-75
2023/05/27 04:41:03;;;;;;;6.65;2.17;;;;;;;;;;4829730;29;20349;-76
2023/05/27 04:44:05;;;;;;;3.90;1.83;;;;;;;;;;4829718;29;20055;-76
2023/05/27 04:46:43;;;;;;;4.03;1.80;;;;;;;;;;4829472;29;20069;-75
2023/05/27 04:49:13;;;;;;;5.15;2.20;;;;;;;;;;4814854;29;20506;-76
2023/05/27 04:51:44;;;;;;;3.55;2.03;;;;;;;;;;4830121;29;20955;-75
2023/05/27 04:54:18;;;;;;;4.78;1.60;;;;;;;;;;4829827;29;20062;-76
2023/05/27 04:56:51;;;;;;;2.25;1.88;;;;;;;;;;4816083;29;20066;-75
2023/05/27 04:59:45;;;;;;;3.20;1.58;;;;;;;;;;4829675;29;20062;-75
2023/05/27 05:02:39;;;;;;;2.35;1.60;;;;;;;;;;4829519;29;20209;-76
2023/05/27 05:05:14;;;;;;;7.07;1.58;;;;;;;;;;4832479;29;20058;-75
2023/05/27 05:07:46;;;;;;;2.90;1.52;;;;;;;;;;4833148;29;20085;-75
2023/05/27 05:10:17;;;;;;;2.65;1.27;;;;;;;;;;4832829;29;20153;-76
2023/05/27 05:12:50;;;;;;;4.00;0.90;;;;;;;;;;4832877;29;20521;-75
2023/05/27 05:15:22;;;;;;;3.20;0.82;;;;;;;;;;4817459;29;20062;-76
2023/05/27 05:17:55;;;;;;;5.68;1.30;;;;;;;;;;4832605;29;20062;-76
2023/05/27 05:20:32;;;;;;;3.83;1.08;;;;;;;;;;4819608;29;20057;-76
2023/05/27 05:23:03;;;;;;;4.85;1.33;;;;;;;;;;4819076;29;20524;-75
2023/05/27 05:25:37;;;;;;;5.32;1.20;;;;;;;;;;4832591;29;20438;-75
2023/05/27 05:28:11;;;;;;;2.03;0.90;;;;;;;;;;4832043;29;20050;-77
2023/05/27 05:30:41;;;;;;;7.28;1.00;;;;;;;;;;4817099;29;20066;-75
2023/05/27 05:33:17;;;;;;;2.30;0.90;;;;;;;;;;4832502;29;20085;-75
2023/05/27 05:35:52;;;;;;;2.50;0.50;;;;;;;;;;4832571;29;20054;-75
2023/05/27 05:38:29;;;;;;;1.05;0.70;;;;;;;;;;4832515;29;20063;-75
2023/05/27 05:41:00;;;;;;;0.70;0.70;;;;;;;;;;4818721;29;20054;-75
2023/05/27 05:43:36;;;;;;;1.67;0.80;;;;;;;;;;4832238;29;20075;-75
2023/05/27 05:46:07;;;;;;;1.88;0.90;;;;;;;;;;4832670;29;20109;-76
2023/05/27 05:48:37;;;;;;;3.92;0.60;;;;;;;;;;4816908;29;20058;-76
2023/05/27 05:51:11;;;;;;;3.33;0.90;;;;;;;;;;4832069;29;20059;-75
2023/05/27 05:53:46;;;;;;;7.05;0.68;;;;;;;;;;4831817;29;20054;-75
2023/05/27 05:56:18;;;;;;;1.42;0.60;;;;;;;;;;4832107;29;20050;-75
2023/05/27 05:58:48;;;;;;;6.15;0.43;;;;;;;;;;4832375;29;20058;-75
2023/05/27 06:01:18;;;;;;;2.30;0.60;;;;;;;;;;4832075;29;20050;-75
2023/05/27 06:03:49;;;;;;;0.73;0.35;;;;;;;;;;4817717;29;20410;-76
2023/05/27 06:06:31;;;;;;;1.27;0.60;;;;;;;;;;4831835;29;20074;-75
2023/05/27 06:09:19;;;;;;;0.82;0.60;;;;;;;;;;4831961;29;20055;-75
2023/05/27 06:11:50;;;;;;;1.27;0.35;;;;;;;;;;4831581;29;20058;-76
2023/05/27 06:14:22;;;;;;;0.70;0.60;;;;;;;;;;4831851;29;20057;-76
2023/05/27 06:16:57;;;;;;;0.55;0.50;;;;;;;;;;4831308;29;20125;-74
2023/05/27 06:19:28;;;;;;;0.43;0.20;;;;;;;;;;4831502;29;20403;-75
2023/05/27 06:21:58;;;;;;;0.35;0.30;;;;;;;;;;4831539;29;20058;-74
2023/05/27 06:24:39;;;;;;;1.45;0.30;;;;;;;;;;4820193;29;20734;-75
2023/05/27 06:27:36;;;;;;;0.50;0.47;;;;;;;;;;4850098;29;20077;-76
2023/05/27 06:30:08;;;;;;;0.63;0.32;;;;;;;;;;4849777;29;20070;-77
2023/05/27 06:32:43;;;;;;;0.57;0.50;;;;;;;;;;4850179;29;20049;-76
2023/05/27 06:35:14;;;;;;;1.30;0.50;;;;;;;;;;4849511;29;20072;-76
2023/05/27 06:37:45;;;;;;;2.45;0.70;;;;;;;;;;4850135;29;20058;-75
2023/05/27 06:40:17;;;;;;;1.58;0.47;;;;;;;;;;4849686;29;20073;-76
2023/05/27 06:42:49;;;;;;;1.75;0.50;;;;;;;;;;4849354;29;20556;-76
2023/05/27 06:45:28;;;;;;;3.90;0.55;;;;;;;;;;4849582;29;20053;-76
2023/05/27 06:48:22;;;;;;;1.48;0.50;;;;;;;;;;4836396;29;20411;-76
2023/05/27 06:50:53;;;;;;;0.50;0.50;;;;;;;;;;4849650;29;20065;-76
2023/05/27 06:53:24;;;;;;;1.42;0.30;;;;;;;;;;4849800;29;20061;-75
2023/05/27 06:56:19;;;;;;;3.50;0.47;;;;;;;;;;4835838;29;20062;-76
2023/05/27 06:58:53;;;;;;;2.08;0.60;;;;;;;;;;4839405;29;20058;-75
2023/05/27 07:01:25;;;;;;;3.42;0.50;;;;;;;;;;4849654;29;20058;-76
2023/05/27 07:04:00;;;;;;;1.20;0.40;;;;;;;;;;4849259;29;20054;-76
2023/05/27 07:06:51;;;;;;;1.67;0.60;;;;;;;;;;4835676;29;20061;-75
2023/05/27 07:09:22;;;;;;;0.95;0.60;;;;;;;;;;4849296;29;20061;-76
2023/05/27 07:12:06;;;;;;;1.55;0.60;;;;;;;;;;4848492;29;20061;-75
2023/05/27 07:14:54;;;;;;;;;;;;;;;;;;4849715;29;20061;-75
2023/05/27 07:17:26;;;;;;;0.22;0.22;;;;;;;;;;4849292;29;19928;-76
2023/05/27 07:19:57;;;;;;;1.42;0.55;;;;;;;;;;4849322;29;20061;-75
2023/05/27 07:22:27;;;;;;;0.55;0.47;;;;;;;;;;4849193;29;20058;-75
2023/05/27 07:24:59;;;;;;;1.48;0.40;;;;;;;;;;4848792;29;20062;-75
2023/05/27 07:27:31;;;;;;;2.17;0.38;;;;;;;;;;4848536;29;20065;-75
2023/05/27 07:30:02;;;;;;;0.60;0.35;;;;;;;;;;4848238;29;20054;-75
2023/05/27 07:32:47;;;;;;;2.83;0.43;;;;;;;;;;4848674;29;20053;-75
2023/05/27 07:35:18;;;;;;;0.55;0.40;;;;;;;;;;4848772;29;20697;-75
2023/05/27 07:37:48;;;;;;;3.92;0.50;;;;;;;;;;4849153;29;20046;-75
2023/05/27 07:40:19;;;;;;;1.27;0.50;;;;;;;;;;4834923;29;20057;-75
2023/05/27 07:42:49;;;;;;;2.72;0.50;;;;;;;;;;4834498;29;20498;-75
2023/05/27 07:45:22;;;;;;;1.23;0.63;;;;;;;;;;4848522;29;20612;-76
2023/05/27 07:47:53;;;;;;;0.57;0.50;;;;;;;;;;4848293;29;20054;-75
2023/05/27 07:50:23;;;;;;;0.50;0.40;;;;;;;;;;4848778;29;20438;-75
2023/05/27 07:53:16;;;;;;;1.13;0.50;;;;;;;;;;4836745;29;20058;-76
2023/05/27 07:55:46;;;;;;;1.27;0.50;;;;;;;;;;4848798;29;20061;-76
2023/05/27 07:58:16;;;;;;;0.85;0.60;;;;;;;;;;4848026;29;20053;-76
2023/05/27 08:01:00;;;;;;;1.45;0.63;;;;;;;;;;4833334;29;20065;-75
2023/05/27 08:03:31;;;;;;;1.83;0.40;;;;;;;;;;4848529;29;20842;-76
2023/05/27 08:06:17;;;;;;;1.98;0.40;;;;;;;;;;4848786;29;20062;-75
2023/05/27 08:08:57;;;;;;;1.30;0.93;;;;;;;;;;4847647;29;20050;-75
2023/05/27 08:12:00;;;;;;;1.80;0.63;;;;;;;;;;4848213;29;20526;-75
2023/05/27 08:15:10;;;;;;;2.90;0.40;;;;;;;;;;4850605;29;20053;-75
2023/05/27 08:18:03;;;;;;;2.67;0.52;;;;;;;;;;4848541;29;20148;-75
2023/05/27 08:20:44;;;;;;;0.50;0.38;;;;;;;;;;4848659;29;20069;-75
2023/05/27 08:23:53;;;;;;;1.05;0.40;;;;;;;;;;4827309;29;20402;-75
2023/05/27 08:26:53;;;;;;;5.32;0.70;;;;;;;;;;4840719;29;20556;-76
2023/05/27 08:29:37;;;;;;;0.57;0.57;;;;;;;;;;4834425;29;20418;-75
2023/05/27 08:32:18;;;;;;;;;;;;;;;;;;4835606;29;20442;-76
2023/05/27 08:34:48;;;;;;;1.58;0.45;;;;;;;;;;4835824;29;19928;-76
2023/05/27 08:37:20;;;;;;;0.95;0.40;;;;;;;;;;4849350;29;20144;-75
2023/05/27 08:39:54;;;;;;;1.20;0.50;;;;;;;;;;4836270;29;20058;-76
2023/05/27 08:42:34;;;;;;;0.85;0.32;;;;;;;;;;4852116;29;20054;-76
2023/05/27 08:45:07;;;;;;;0.73;0.40;;;;;;;;;;4852321;29;20058;-76
2023/05/27 08:47:43;;;;;;;5.55;0.80;;;;;;;;;;4852833;29;20057;-76
2023/05/27 08:50:19;;;;;;;5.28;0.70;;;;;;;;;;4836589;29;20061;-76
2023/05/27 08:52:54;;;;;;;1.70;0.80;;;;;;;;;;4852060;29;20061;-76
2023/05/27 08:55:27;;;;;;;0.93;0.70;;;;;;;;;;4851603;29;20054;-75
2023/05/27 08:58:02;;;;;;;1.92;0.70;;;;;;;;;;4852010;29;20050;-76
2023/05/27 09:00:37;;;;;;;0.50;0.50;;;;;;;;;;4852173;29;20061;-76
2023/05/27 09:03:35;;;;;;;1.15;0.77;;;;;;;;;;4838394;29;20057;-76
2023/05/27 09:06:05;;;;;;;2.95;0.80;;;;;;;;;;4838352;29;20061;-75
2023/05/27 09:08:36;;;;;;;1.45;0.55;;;;;;;;;;4837721;29;20407;-76
2023/05/27 09:11:30;;;;;;;0.70;0.70;;;;;;;;;;4851245;29;20867;-76
2023/05/27 09:14:01;;;;;;;0.43;0.43;;;;;;;;;;4837465;29;20054;-76
2023/05/27 09:16:31;;;;;;;0.73;0.70;;;;;;;;;;4838002;29;20053;-76
2023/05/27 09:19:03;;;;;;;2.17;0.68;;;;;;;;;;4851894;29;20064;-76
2023/05/27 09:21:33;;;;;;;1.50;0.90;;;;;;;;;;4837823;29;20052;-75
2023/05/27 09:24:03;;;;;;;0.85;0.60;;;;;;;;;;4837578;29;20050;-76
2023/05/27 09:26:34;;;;;;;2.40;0.70;;;;;;;;;;4837783;29;20041;-75
2023/05/27 09:29:08;;;;;;;1.00;0.82;;;;;;;;;;4850698;29;20056;-75
2023/05/27 09:31:42;;;;;;;2.75;1.15;;;;;;;;;;4836972;29;20050;-76
2023/05/27 09:34:15;;;;;;;5.07;1.20;;;;;;;;;;4837334;29;20498;-74
2023/05/27 09:36:47;;;;;;;3.33;0.93;;;;;;;;;;4839582;29;20050;-76
2023/05/27 09:39:20;;;;;;;0.90;0.90;;;;;;;;;;4837226;29;20057;-76
2023/05/27 09:41:59;;;;;;;1.48;0.90;;;;;;;;;;4836789;29;20053;-76
2023/05/27 09:44:30;;;;;;;3.85;1.02;;;;;;;;;;4836912;29;20441;-75
2023/05/27 09:47:15;;;;;;;1.08;0.80;;;;;;;;;;4837194;29;20060;-76
2023/05/27 09:49:50;;;;;;;1.67;0.82;;;;;;;;;;4836984;29;20050;-76
2023/05/27 09:52:25;;;;;;;1.67;1.08;;;;;;;;;;4836594;29;20050;-76
2023/05/27 09:54:56;;;;;;;1.40;0.80;;;;;;;;;;4836838;29;20061;-75
2023/05/27 09:57:31;;;;;;;2.75;0.95;;;;;;;;;;4837062;29;20050;-76
2023/05/27 10:00:22;;;;;;;2.75;0.82;;;;;;;;;;4833477;29;20069;-76
2023/05/27 10:02:57;;;;;;;1.95;0.60;;;;;;;;;;4836391;29;20076;-76
2023/05/27 10:05:29;;;;;;;1.13;0.75;;;;;;;;;;4849581;29;20065;-76
2023/05/27 10:08:01;;;;;;;1.75;0.60;;;;;;;;;;4836833;29;20529;-77
2023/05/27 10:10:46;;;;;;;6.68;0.80;;;;;;;;;;4836291;29;20058;-77
2023/05/27 10:13:20;;;;;;;0.60;0.50;;;;;;;;;;4836466;29;20046;-76
2023/05/27 10:15:52;;;;;;;3.38;0.70;;;;;;;;;;4836434;29;20394;-76
2023/05/27 10:18:28;;;;;;;1.08;0.80;;;;;;;;;;4836076;29;20046;-76
2023/05/27 10:21:04;;;;;;;0.82;0.50;;;;;;;;;;4849571;29;20058;-76
2023/05/27 10:23:34;;;;;;;1.27;0.82;;;;;;;;;;4849393;29;20588;-76
2023/05/27 10:26:08;;;;;;;2.78;0.90;;;;;;;;;;4836616;29;20494;-78
2023/05/27 10:28:40;;;;;;;1.27;0.80;;;;;;;;;;4836049;29;20445;-77
2023/05/27 10:31:19;;;;;;;5.00;0.93;;;;;;;;;;4836241;29;20418;-76
2023/05/27 10:33:52;;;;;;;4.13;0.85;;;;;;;;;;4849557;29;20058;-77
2023/05/27 10:36:36;;;;;;;2.13;0.70;;;;;;;;;;4834806;29;20053;-77
2023/05/27 10:39:18;;;;;;;0.88;0.60;;;;;;;;;;4850111;29;20073;-75
2023/05/27 10:41:54;;;;;;;0.77;0.70;;;;;;;;;;4836794;29;20049;-76
2023/05/27 10:44:41;;;;;;;2.45;0.73;;;;;;;;;;4836704;29;20056;-77
2023/05/27 10:47:13;;;;;;;2.13;1.20;;;;;;;;;;4837567;29;20057;-75
2023/05/27 10:49:48;;;;;;;0.73;0.65;;;;;;;;;;4835899;29;20070;-75
2023/05/27 10:52:31;;;;;;;4.47;0.70;;;;;;;;;;4835887;29;20050;-75
2023/05/27 10:55:02;;;;;;;2.47;1.00;;;;;;;;;;4835397;29;20061;-75
2023/05/27 10:57:34;;;;;;;5.05;1.00;;;;;;;;;;4849108;29;20057;-75
2023/05/27 11:00:09;;;;;;;4.63;1.00;;;;;;;;;;4835479;29;20520;-75
2023/05/27 11:02:40;;;;;;;4.85;1.27;;;;;;;;;;4835116;29;20049;-76
2023/05/27 11:05:13;;;;;;;4.18;1.80;;;;;;;;;;4835373;29;20069;-75
2023/05/27 11:07:47;;;;;;;2.50;1.33;;;;;;;;;;4836570;29;20046;-74
2023/05/27 11:10:17;;;;;;;4.35;1.90;;;;;;;;;;4849369;29;20065;-75
2023/05/27 11:12:48;;;;;;;4.38;1.90;;;;;;;;;;4849270;29;20053;-75
2023/05/27 11:15:19;;;;;;;3.70;1.95;;;;;;;;;;4848983;29;20038;-75
2023/05/27 11:17:50;;;;;;;7.18;2.30;;;;;;;;;;4835301;29;20050;-75
2023/05/27 11:20:22;;;;;;;3.15;1.65;;;;;;;;;;4835939;29;20061;-74
2023/05/27 11:23:15;;;;;;;7.05;1.30;;;;;;;;;;4845953;29;20083;-75
2023/05/27 11:25:46;;;;;;;3.08;1.80;;;;;;;;;;4835371;29;20050;-75
2023/05/27 11:28:18;;;;;;;3.25;1.10;;;;;;;;;;4834726;29;20045;-75
2023/05/27 11:30:50;;;;;;;3.53;1.75;;;;;;;;;;4834889;29;20069;-76
2023/05/27 11:33:35;;;;;;;4.15;1.65;;;;;;;;;;4834870;29;20053;-76
2023/05/27 11:36:07;;;;;;;2.30;1.10;;;;;;;;;;4835335;29;20058;-81
2023/05/27 11:38:58;;;;;;;4.88;1.27;;;;;;;;;;4834761;29;20046;-76
2023/05/27 11:41:30;;;;;;;5.60;1.85;;;;;;;;;;4835246;29;20050;-76
2023/05/27 11:44:10;;;;;;;4.10;1.58;;;;;;;;;;4848806;29;20058;-76
2023/05/27 11:46:46;;;;;;;2.00;1.70;;;;;;;;;;4834621;29;20057;-80
2023/05/27 11:49:20;;;;;;;12.52;2.40;;;;;;;;;;4834702;29;20061;-76
2023/05/27 11:51:55;;;;;;;7.65;2.50;;;;;;;;;;4832920;29;20054;-76
2023/05/27 11:54:29;;;;;;;12.48;2.45;;;;;;;;;;4839919;29;20050;-75
2023/05/27 11:57:00;;;;;;;7.63;2.00;;;;;;;;;;4816955;29;20058;-76
2023/05/27 11:59:31;;;;;;;8.30;3.00;;;;;;;;;;4816476;29;20062;-77
2023/05/27 12:02:04;;;;;;;8.43;2.88;;;;;;;;;;4816599;29;20050;-76
2023/05/27 12:04:35;;;;;;;9.02;3.97;;;;;;;;;;4816729;29;20066;-76
2023/05/27 12:07:05;;;;;;;13.18;4.20;;;;;;;;;;4816628;29;20050;-76
2023/05/27 12:09:51;;;;;;;9.63;4.82;;;;;;;;;;4816558;29;20065;-74
2023/05/27 12:12:21;;;;;;;12.70;5.15;;;;;;;;;;4830023;29;20065;-75
2023/05/27 12:14:52;;;;;;;12.52;6.28;;;;;;;;;;4819287;29;20054;-76
2023/05/27 12:17:22;;;;;;;14.95;6.35;;;;;;;;;;4819923;29;20502;-75
2023/05/27 12:19:52;;;;;;;8.25;5.82;;;;;;;;;;4819875;29;20423;-76
2023/05/27 12:22:23;;;;;;;12.57;6.78;;;;;;;;;;4819997;29;20078;-75
2023/05/27 12:24:54;;;;;;;9.80;7.20;;;;;;;;;;4819835;29;20061;-76
2023/05/27 12:27:29;;;;;;;12.00;6.13;;;;;;;;;;4819813;29;20054;-75
2023/05/27 12:29:59;;;;;;;7.07;5.28;;;;;;;;;;4817909;29;20081;-75
2023/05/27 12:32:29;;;;;;;14.05;7.18;;;;;;;;;;4820288;29;20065;-76
2023/05/27 12:35:00;;;;;;;7.35;5.68;;;;;;;;;;4819575;29;20057;-75
2023/05/27 12:37:31;;;;;;;12.52;6.68;;;;;;;;;;4819315;29;20514;-76
2023/05/27 12:40:04;;;;;;;18.60;6.68;;;;;;;;;;4820174;29;20506;-76
2023/05/27 12:42:35;;;;;;;10.75;6.30;;;;;;;;;;4820063;29;20054;-76
2023/05/27 12:45:05;;;;;;;8.38;6.20;;;;;;;;;;4819668;29;20054;-75
2023/05/27 12:47:37;;;;;;;15.82;10.07;;;;;;;;;;4819316;29;20378;-75
2023/05/27 12:50:08;;;;;;;20.77;7.00;;;;;;;;;;4819731;29;20391;-76
2023/05/27 12:52:38;;;;;;;11.32;7.75;;;;;;;;;;4819730;29;20062;-75
2023/05/27 12:55:10;;;;;;;10.57;7.28;;;;;;;;;;4833523;29;20085;-76
2023/05/27 12:57:41;;;;;;;11.40;7.45;;;;;;;;;;4817987;29;20054;-75
2023/05/27 13:00:12;;;;;;;13.82;6.82;;;;;;;;;;4819210;29;20055;-79
2023/05/27 13:03:02;;;;;;;13.15;9.82;;;;;;;;;;4817680;29;20059;-80
2023/05/27 13:05:34;;;;;;;12.65;8.05;;;;;;;;;;4833158;29;20434;-79
2023/05/27 13:08:07;;;;;;;14.02;8.10;;;;;;;;;;4818752;29;20058;-77
2023/05/27 13:10:38;;;;;;;10.88;8.00;;;;;;;;;;4818697;29;20061;-75
2023/05/27 13:13:07;;;;;;;11.63;8.05;;;;;;;;;;4816882;29;20433;-75
2023/05/27 13:15:39;;;;;;;11.13;6.22;;;;;;;;;;4816870;29;20407;-75
2023/05/27 13:18:10;;;;;;;10.40;7.07;;;;;;;;;;4817391;29;20054;-75
2023/05/27 13:20:40;;;;;;;24.48;18.95;;;;;;;;;;4816563;29;20073;-75
2023/05/27 13:23:11;;;;;;;10.05;6.90;;;;;;;;;;4819399;29;20058;-76
2023/05/27 13:25:42;;;;;;;9.48;7.28;;;;;;;;;;4817022;29;20054;-79
2023/05/27 13:28:14;;;;;;;12.60;7.00;;;;;;;;;;4819218;29;20061;-75
2023/05/27 13:30:46;;;;;;;10.23;6.50;;;;;;;;;;4818070;29;20073;-75
2023/05/27 13:33:19;;;;;;;6.72;5.68;;;;;;;;;;4819224;29;20055;-75
2023/05/27 13:35:50;;;;;;;7.50;5.60;;;;;;;;;;4818208;29;20051;-75
2023/05/27 13:38:21;;;;;;;7.75;4.80;;;;;;;;;;4819004;29;20061;-75
2023/05/27 13:40:52;;;;;;;8.48;4.95;;;;;;;;;;4818720;29;20049;-76
2023/05/27 13:43:22;;;;;;;11.40;5.07;;;;;;;;;;4817558;29;20050;-74
2023/05/27 13:45:52;;;;;;;13.95;7.45;;;;;;;;;;4818452;29;20054;-75
2023/05/27 13:48:23;;;;;;;12.18;6.30;;;;;;;;;;4818133;29;20073;-75
2023/05/27 13:50:54;;;;;;;10.88;6.95;;;;;;;;;;4818189;29;20058;-74
2023/05/27 13:53:25;;;;;;;9.32;6.65;;;;;;;;;;4818179;29;20046;-74
2023/05/27 13:55:55;;;;;;;16.85;13.20;;;;;;;;;;4818808;29;20054;-78
2023/05/27 13:58:26;;;;;;;13.90;5.97;;;;;;;;;;4818610;29;20050;-79
2023/05/27 14:00:57;;;;;;;12.82;6.75;;;;;;;;;;4817959;29;20057;-75
2023/05/27 14:03:28;;;;;;;12.05;7.35;;;;;;;;;;4818368;29;20058;-75
2023/05/27 14:05:59;;;;;;;9.88;6.65;;;;;;;;;;4818114;29;20426;-76
2023/05/27 14:08:30;;;;;;;11.13;5.50;;;;;;;;;;4831916;29;20050;-77
2023/05/27 14:11:01;;;;;;;9.82;5.30;;;;;;;;;;4818390;29;20053;-77
2023/05/27 14:13:32;;;;;;;7.03;5.18;;;;;;;;;;4818275;29;20058;-76
2023/05/27 14:16:02;;;;;;;9.80;6.05;;;;;;;;;;4817929;29;20042;-76
2023/05/27 14:18:34;;;;;;;8.70;5.28;;;;;;;;;;4817557;29;20054;-76
2023/05/27 14:21:07;;;;;;;7.68;5.55;;;;;;;;;;4831339;29;20058;-75
2023/05/27 14:23:37;;;;;;;8.38;5.43;;;;;;;;;;4831808;29;20065;-76
2023/05/27 14:26:07;;;;;;;8.85;5.63;;;;;;;;;;4818115;29;20523;-75
2023/05/27 14:28:38;;;;;;;25.10;6.28;;;;;;;;;;4818108;29;20525;-75
2023/05/27 14:31:09;;;;;;;12.73;5.78;;;;;;;;;;4818089;29;20069;-76
2023/05/27 14:33:39;;;;;;;15.52;7.32;;;;;;;;;;4817537;29;20058;-77
2023/05/27 14:36:10;;;;;;;13.25;6.20;;;;;;;;;;4830585;29;20053;-77
2023/05/27 14:38:40;;;;;;;12.07;6.10;;;;;;;;;;4817881;29;20537;-76
2023/05/27 14:41:11;;;;;;;8.13;5.80;;;;;;;;;;4817732;29;20046;-77
2023/05/27 14:43:42;;;;;;;7.03;4.50;;;;;;;;;;4817854;29;20136;-76
2023/05/27 14:46:12;;;;;;;6.35;4.32;;;;;;;;;;4831644;29;20054;-76
2023/05/27 14:48:43;;;;;;;14.07;4.60;;;;;;;;;;4817745;29;20050;-76
2023/05/27 14:51:16;;;;;;;9.15;4.13;;;;;;;;;;4817368;29;20058;-75
2023/05/27 14:53:48;;;;;;;6.45;3.53;;;;;;;;;;4817489;29;20065;-75
2023/05/27 14:56:18;;;;;;;4.75;3.45;;;;;;;;;;4817179;29;20050;-75
2023/05/27 14:58:50;;;;;;;9.15;5.75;;;;;;;;;;4830861;29;20054;-75
2023/05/27 15:01:21;;;;;;;4.07;2.95;;;;;;;;;;4817275;29;20050;-75
2023/05/27 15:03:51;;;;;;;4.50;2.40;;;;;;;;;;4817615;29;20050;-75
2023/05/27 15:06:22;;;;;;;5.60;3.20;;;;;;;;;;4817171;29;20050;-75
2023/05/27 15:08:52;;;;;;;3.70;2.85;;;;;;;;;;4817186;29;20054;-75
2023/05/27 15:11:23;;;;;;;4.15;2.67;;;;;;;;;;4817123;29;20059;-75
2023/05/27 15:13:59;;;;;;;6.45;2.88;;;;;;;;;;4816349;29;20055;-75
2023/05/27 15:16:32;;;;;;;6.20;3.92;;;;;;;;;;4817257;29;20073;-76
2023/05/27 15:19:02;;;;;;;5.68;2.92;;;;;;;;;;4817362;29;20059;-77
2023/05/27 15:21:33;;;;;;;4.07;2.75;;;;;;;;;;4816975;29;20058;-78